sensor_id;sensor_type;location;lat;lon;timestamp;P1;durP1;ratioP1;P2;durP2;ratioP2
20154;SDS011;10238;49.556;10.956;2023-11-18T13:06:35;15.70;;;11.13;;
20154;SDS011;10238;49.556;10.956;2023-11-18T13:09:22;12.82;;;9.05;;
20154;SDS011;10238;49.556;10.956;2023-11-18T13:12:16;11.85;;;8.68;;
20154;SDS011;10238;49.556;10.956;2023-11-18T13:15:06;11.35;;;8.90;;
20154;SDS011;10238;49.556;10.956;2023-11-18T13:17:58;16.83;;;10.30;;
20154;SDS011;10238;49.556;10.956;2023-11-18T13:20:54;15.57;;;9.63;;
20154;SDS011;10238;49.556;10.956;2023-11-18T13:23:48;15.43;;;10.35;;
20154;SDS011;10238;49.556;10.956;2023-11-18T13:26:40;15.98;;;11.63;;
20154;SDS011;10238;49.556;10.956;2023-11-18T13:29:29;14.82;;;9.80;;
20154;SDS011;10238;49.556;10.956;2023-11-18T13:32:17;11.75;;;7.75;;
20154;SDS011;10238;49.556;10.956;2023-11-18T13:35:09;7.27;;;5.43;;
20154;SDS011;10238;49.556;10.956;2023-11-18T13:37:59;10.75;;;7.32;;
20154;SDS011;10238;49.556;10.956;2023-11-18T13:40:51;10.35;;;7.35;;
20154;SDS011;10238;49.556;10.956;2023-11-18T13:43:42;8.15;;;6.40;;
20154;SDS011;10238;49.556;10.956;2023-11-18T13:46:31;10.80;;;7.38;;
20154;SDS011;10238;49.556;10.956;2023-11-18T13:49:19;9.23;;;6.97;;
20154;SDS011;10238;49.556;10.956;2023-11-18T13:52:07;9.35;;;6.78;;
20154;SDS011;10238;49.556;10.956;2023-11-18T13:54:57;9.35;;;7.05;;
20154;SDS011;10238;49.556;10.956;2023-11-18T13:57:48;8.30;;;5.82;;
20154;SDS011;10238;49.556;10.956;2023-11-18T14:00:36;7.22;;;5.25;;
20154;SDS011;10238;49.556;10.956;2023-11-18T14:03:24;8.43;;;6.40;;
20154;SDS011;10238;49.556;10.956;2023-11-18T14:06:13;8.77;;;6.13;;
20154;SDS011;10238;49.556;10.956;2023-11-18T14:09:03;5.47;;;4.97;;
20154;SDS011;10238;49.556;10.956;2023-11-18T14:11:51;7.10;;;5.50;;
20154;SDS011;10238;49.556;10.956;2023-11-18T14:14:42;6.47;;;4.75;;
20154;SDS011;10238;49.556;10.956;2023-11-18T14:17:29;5.78;;;4.93;;
20154;SDS011;10238;49.556;10.956;2023-11-18T14:20:17;5.55;;;4.65;;
20154;SDS011;10238;49.556;10.956;2023-11-18T14:23:08;8.10;;;6.45;;
20154;SDS011;10238;49.556;10.956;2023-11-18T14:25:57;8.45;;;5.20;;
20154;SDS011;10238;49.556;10.956;2023-11-18T14:28:45;9.07;;;5.63;;
20154;SDS011;10238;49.556;10.956;2023-11-18T14:31:34;6.22;;;5.13;;
20154;SDS011;10238;49.556;10.956;2023-11-18T14:34:22;7.88;;;4.10;;
20154;SDS011;10238;49.556;10.956;2023-11-18T14:37:10;5.60;;;3.83;;
20154;SDS011;10238;49.556;10.956;2023-11-18T14:39:58;8.52;;;5.75;;
20154;SDS011;10238;49.556;10.956;2023-11-18T14:42:48;6.38;;;5.35;;
20154;SDS011;10238;49.556;10.956;2023-11-18T14:45:37;9.15;;;5.35;;
20154;SDS011;10238;49.556;10.956;2023-11-18T14:48:26;5.95;;;5.30;;
20154;SDS011;10238;49.556;10.956;2023-11-18T14:51:13;7.40;;;5.50;;
20154;SDS011;10238;49.556;10.956;2023-11-18T14:54:01;6.38;;;5.13;;
20154;SDS011;10238;49.556;10.956;2023-11-18T14:56:49;5.63;;;5.00;;
20154;SDS011;10238;49.556;10.956;2023-11-18T14:59:36;8.07;;;5.43;;
20154;SDS011;10238;49.556;10.956;2023-11-18T15:02:25;7.65;;;4.20;;
20154;SDS011;10238;49.556;10.956;2023-11-18T15:05:14;6.30;;;4.88;;
20154;SDS011;10238;49.556;10.956;2023-11-18T15:08:04;5.25;;;4.28;;
20154;SDS011;10238;49.556;10.956;2023-11-18T15:10:55;6.03;;;4.95;;
20154;SDS011;10238;49.556;10.956;2023-11-18T15:13:44;5.13;;;4.15;;
20154;SDS011;10238;49.556;10.956;2023-11-18T15:16:32;5.28;;;4.25;;
20154;SDS011;10238;49.556;10.956;2023-11-18T15:19:20;5.60;;;3.80;;
20154;SDS011;10238;49.556;10.956;2023-11-18T15:22:08;4.60;;;4.10;;
20154;SDS011;10238;49.556;10.956;2023-11-18T15:24:56;4.82;;;3.97;;
20154;SDS011;10238;49.556;10.956;2023-11-18T15:27:46;7.20;;;3.85;;
20154;SDS011;10238;49.556;10.956;2023-11-18T15:30:35;6.72;;;3.97;;
20154;SDS011;10238;49.556;10.956;2023-11-18T15:33:24;5.25;;;3.80;;
20154;SDS011;10238;49.556;10.956;2023-11-18T15:36:11;6.03;;;4.00;;
20154;SDS011;10238;49.556;10.956;2023-11-18T15:39:02;5.18;;;4.18;;
20154;SDS011;10238;49.556;10.956;2023-11-18T15:41:50;7.13;;;5.03;;
20154;SDS011;10238;49.556;10.956;2023-11-18T15:44:37;7.63;;;5.03;;
20154;SDS011;10238;49.556;10.956;2023-11-18T15:47:26;8.10;;;4.55;;
20154;SDS011;10238;49.556;10.956;2023-11-18T15:50:13;6.43;;;4.70;;
20154;SDS011;10238;49.556;10.956;2023-11-18T15:53:04;5.03;;;4.30;;
20154;SDS011;10238;49.556;10.956;2023-11-18T15:55:54;6.80;;;4.53;;
20154;SDS011;10238;49.556;10.956;2023-11-18T15:58:41;5.60;;;4.53;;
20154;SDS011;10238;49.556;10.956;2023-11-18T16:01:29;6.82;;;5.03;;
20154;SDS011;10238;49.556;10.956;2023-11-18T16:04:18;5.60;;;5.00;;
20154;SDS011;10238;49.556;10.956;2023-11-18T16:07:05;6.97;;;5.72;;
20154;SDS011;10238;49.556;10.956;2023-11-18T16:09:53;7.40;;;6.05;;
20154;SDS011;10238;49.556;10.956;2023-11-18T16:12:42;9.63;;;4.88;;
20154;SDS011;10238;49.556;10.956;2023-11-18T16:15:33;12.98;;;6.75;;
20154;SDS011;10238;49.556;10.956;2023-11-18T16:18:22;11.23;;;7.20;;
20154;SDS011;10238;49.556;10.956;2023-11-18T16:21:10;6.03;;;5.20;;
20154;SDS011;10238;49.556;10.956;2023-11-18T16:24:00;9.52;;;6.68;;
20154;SDS011;10238;49.556;10.956;2023-11-18T16:26:49;9.32;;;6.80;;
20154;SDS011;10238;49.556;10.956;2023-11-18T16:29:38;8.27;;;6.95;;
20154;SDS011;10238;49.556;10.956;2023-11-18T16:32:25;8.20;;;6.30;;
20154;SDS011;10238;49.556;10.956;2023-11-18T16:35:13;8.18;;;6.75;;
20154;SDS011;10238;49.556;10.956;2023-11-18T16:38:02;8.63;;;7.28;;
20154;SDS011;10238;49.556;10.956;2023-11-18T16:40:51;9.20;;;7.32;;
20154;SDS011;10238;49.556;10.956;2023-11-18T16:43:39;9.85;;;7.10;;
20154;SDS011;10238;49.556;10.956;2023-11-18T16:46:28;13.23;;;7.43;;
20154;SDS011;10238;49.556;10.956;2023-11-18T16:49:16;9.68;;;6.35;;
20154;SDS011;10238;49.556;10.956;2023-11-18T16:52:05;8.45;;;6.45;;
20154;SDS011;10238;49.556;10.956;2023-11-18T16:54:52;6.53;;;5.43;;
20154;SDS011;10238;49.556;10.956;2023-11-18T16:57:40;8.27;;;5.10;;
20154;SDS011;10238;49.556;10.956;2023-11-18T17:00:28;9.55;;;6.20;;
20154;SDS011;10238;49.556;10.956;2023-11-18T17:03:19;9.85;;;6.22;;
20154;SDS011;10238;49.556;10.956;2023-11-18T17:06:07;8.75;;;5.95;;
20154;SDS011;10238;49.556;10.956;2023-11-18T17:08:56;10.50;;;6.30;;
20154;SDS011;10238;49.556;10.956;2023-11-18T17:11:46;7.38;;;5.53;;
20154;SDS011;10238;49.556;10.956;2023-11-18T17:14:34;8.27;;;5.57;;
20154;SDS011;10238;49.556;10.956;2023-11-18T17:17:22;7.30;;;5.57;;
20154;SDS011;10238;49.556;10.956;2023-11-18T17:20:12;8.88;;;5.47;;
20154;SDS011;10238;49.556;10.956;2023-11-18T17:23:02;8.77;;;5.60;;
20154;SDS011;10238;49.556;10.956;2023-11-18T17:25:50;8.02;;;4.82;;
20154;SDS011;10238;49.556;10.956;2023-11-18T17:28:39;6.78;;;4.43;;
20154;SDS011;10238;49.556;10.956;2023-11-18T17:31:26;5.50;;;4.15;;
20154;SDS011;10238;49.556;10.956;2023-11-18T17:34:14;4.60;;;4.13;;
20154;SDS011;10238;49.556;10.956;2023-11-18T17:37:03;6.05;;;3.80;;
20154;SDS011;10238;49.556;10.956;2023-11-18T17:39:53;6.00;;;4.55;;
20154;SDS011;10238;49.556;10.956;2023-11-18T17:42:41;6.00;;;4.30;;
20154;SDS011;10238;49.556;10.956;2023-11-18T17:45:31;8.00;;;4.60;;
20154;SDS011;10238;49.556;10.956;2023-11-18T17:48:19;6.05;;;4.70;;
20154;SDS011;10238;49.556;10.956;2023-11-18T17:51:06;6.20;;;5.03;;
20154;SDS011;10238;49.556;10.956;2023-11-18T17:53:56;8.50;;;5.53;;
20154;SDS011;10238;49.556;10.956;2023-11-18T17:56:43;6.72;;;5.78;;
20154;SDS011;10238;49.556;10.956;2023-11-18T17:59:31;9.18;;;6.40;;
20154;SDS011;10238;49.556;10.956;2023-11-18T18:02:19;9.40;;;6.40;;
20154;SDS011;10238;49.556;10.956;2023-11-18T18:05:07;7.65;;;5.68;;
20154;SDS011;10238;49.556;10.956;2023-11-18T18:07:57;10.00;;;5.68;;
20154;SDS011;10238;49.556;10.956;2023-11-18T18:10:46;10.07;;;6.00;;
20154;SDS011;10238;49.556;10.956;2023-11-18T18:13:34;8.10;;;5.47;;
20154;SDS011;10238;49.556;10.956;2023-11-18T18:16:22;10.80;;;6.07;;
20154;SDS011;10238;49.556;10.956;2023-11-18T18:19:10;8.52;;;5.57;;
20154;SDS011;10238;49.556;10.956;2023-11-18T18:21:57;7.35;;;5.65;;
20154;SDS011;10238;49.556;10.956;2023-11-18T18:24:45;8.60;;;5.85;;
20154;SDS011;10238;49.556;10.956;2023-11-18T18:27:34;7.05;;;5.32;;
20154;SDS011;10238;49.556;10.956;2023-11-18T18:30:22;8.27;;;5.60;;
20154;SDS011;10238;49.556;10.956;2023-11-18T18:33:09;7.75;;;5.38;;
20154;SDS011;10238;49.556;10.956;2023-11-18T18:35:57;7.68;;;5.50;;
20154;SDS011;10238;49.556;10.956;2023-11-18T18:38:45;6.40;;;5.22;;
20154;SDS011;10238;49.556;10.956;2023-11-18T18:41:35;7.50;;;5.70;;
20154;SDS011;10238;49.556;10.956;2023-11-18T18:44:25;6.93;;;5.30;;
20154;SDS011;10238;49.556;10.956;2023-11-18T18:47:13;7.32;;;4.95;;
20154;SDS011;10238;49.556;10.956;2023-11-18T18:50:01;9.15;;;5.45;;
20154;SDS011;10238;49.556;10.956;2023-11-18T18:52:51;7.63;;;5.40;;
20154;SDS011;10238;49.556;10.956;2023-11-18T18:55:38;11.95;;;5.90;;
20154;SDS011;10238;49.556;10.956;2023-11-18T18:58:26;6.38;;;5.03;;
20154;SDS011;10238;49.556;10.956;2023-11-18T19:01:16;7.07;;;5.28;;
20154;SDS011;10238;49.556;10.956;2023-11-18T19:04:04;7.57;;;4.75;;
20154;SDS011;10238;49.556;10.956;2023-11-18T19:06:53;7.93;;;5.18;;
20154;SDS011;10238;49.556;10.956;2023-11-18T19:09:41;8.52;;;5.82;;
20154;SDS011;10238;49.556;10.956;2023-11-18T19:12:29;8.73;;;6.32;;
20154;SDS011;10238;49.556;10.956;2023-11-18T19:15:18;7.72;;;6.68;;
20154;SDS011;10238;49.556;10.956;2023-11-18T19:18:07;8.88;;;6.28;;
20154;SDS011;10238;49.556;10.956;2023-11-18T19:20:55;9.10;;;6.00;;
20154;SDS011;10238;49.556;10.956;2023-11-18T19:23:43;7.10;;;5.72;;
20154;SDS011;10238;49.556;10.956;2023-11-18T19:26:30;8.25;;;5.63;;
20154;SDS011;10238;49.556;10.956;2023-11-18T19:29:21;8.20;;;5.60;;
20154;SDS011;10238;49.556;10.956;2023-11-18T19:32:09;6.57;;;5.00;;
20154;SDS011;10238;49.556;10.956;2023-11-18T19:34:58;8.57;;;6.93;;
20154;SDS011;10238;49.556;10.956;2023-11-18T19:37:47;7.47;;;5.30;;
20154;SDS011;10238;49.556;10.956;2023-11-18T19:40:35;8.10;;;5.80;;
20154;SDS011;10238;49.556;10.956;2023-11-18T19:43:23;8.85;;;6.38;;
20154;SDS011;10238;49.556;10.956;2023-11-18T19:46:11;12.43;;;7.43;;
20154;SDS011;10238;49.556;10.956;2023-11-18T19:48:59;9.40;;;6.03;;
20154;SDS011;10238;49.556;10.956;2023-11-18T19:51:50;13.68;;;7.90;;
20154;SDS011;10238;49.556;10.956;2023-11-18T19:54:39;12.15;;;6.07;;
20154;SDS011;10238;49.556;10.956;2023-11-18T19:57:29;8.65;;;5.93;;
20154;SDS011;10238;49.556;10.956;2023-11-18T20:00:21;11.13;;;7.63;;
20154;SDS011;10238;49.556;10.956;2023-11-18T20:03:12;10.68;;;7.53;;
20154;SDS011;10238;49.556;10.956;2023-11-18T20:06:01;10.23;;;5.93;;
20154;SDS011;10238;49.556;10.956;2023-11-18T20:08:50;7.03;;;5.43;;
20154;SDS011;10238;49.556;10.956;2023-11-18T20:11:46;6.72;;;5.18;;
20154;SDS011;10238;49.556;10.956;2023-11-18T20:14:35;5.95;;;4.43;;
20154;SDS011;10238;49.556;10.956;2023-11-18T20:17:23;6.25;;;4.57;;
20154;SDS011;10238;49.556;10.956;2023-11-18T20:20:11;8.32;;;3.80;;
20154;SDS011;10238;49.556;10.956;2023-11-18T20:23:00;5.72;;;3.45;;
20154;SDS011;10238;49.556;10.956;2023-11-18T20:25:50;8.40;;;4.10;;
20154;SDS011;10238;49.556;10.956;2023-11-18T20:28:38;4.95;;;3.72;;
20154;SDS011;10238;49.556;10.956;2023-11-18T20:31:25;4.60;;;3.60;;
20154;SDS011;10238;49.556;10.956;2023-11-18T20:34:13;3.60;;;3.20;;
20154;SDS011;10238;49.556;10.956;2023-11-18T20:37:01;4.15;;;3.45;;
20154;SDS011;10238;49.556;10.956;2023-11-18T20:39:51;5.28;;;3.05;;
20154;SDS011;10238;49.556;10.956;2023-11-18T20:42:41;7.05;;;3.70;;
20154;SDS011;10238;49.556;10.956;2023-11-18T20:45:28;11.13;;;5.68;;
20154;SDS011;10238;49.556;10.956;2023-11-18T20:48:17;4.63;;;3.67;;
20154;SDS011;10238;49.556;10.956;2023-11-18T20:51:05;4.60;;;3.40;;
20154;SDS011;10238;49.556;10.956;2023-11-18T20:53:53;4.55;;;2.83;;
20154;SDS011;10238;49.556;10.956;2023-11-18T20:56:41;3.58;;;3.17;;
20154;SDS011;10238;49.556;10.956;2023-11-18T20:59:32;5.70;;;3.08;;
20154;SDS011;10238;49.556;10.956;2023-11-18T21:02:20;4.22;;;3.40;;
20154;SDS011;10238;49.556;10.956;2023-11-18T21:05:08;4.57;;;2.80;;
20154;SDS011;10238;49.556;10.956;2023-11-18T21:07:56;5.45;;;3.10;;
20154;SDS011;10238;49.556;10.956;2023-11-18T21:10:44;4.60;;;3.50;;
20154;SDS011;10238;49.556;10.956;2023-11-18T21:13:32;4.75;;;2.92;;
20154;SDS011;10238;49.556;10.956;2023-11-18T21:16:26;6.07;;;3.60;;
20154;SDS011;10238;49.556;10.956;2023-11-18T21:19:16;4.57;;;3.05;;
20154;SDS011;10238;49.556;10.956;2023-11-18T21:22:04;4.65;;;2.88;;
20154;SDS011;10238;49.556;10.956;2023-11-18T21:24:52;6.68;;;3.67;;
20154;SDS011;10238;49.556;10.956;2023-11-18T21:27:41;3.70;;;3.22;;
20154;SDS011;10238;49.556;10.956;2023-11-18T21:30:29;3.35;;;2.92;;
20154;SDS011;10238;49.556;10.956;2023-11-18T21:33:19;4.30;;;3.13;;
20154;SDS011;10238;49.556;10.956;2023-11-18T21:36:08;4.57;;;3.10;;
20154;SDS011;10238;49.556;10.956;2023-11-18T21:38:59;3.40;;;3.10;;
20154;SDS011;10238;49.556;10.956;2023-11-18T21:41:47;5.80;;;3.20;;
20154;SDS011;10238;49.556;10.956;2023-11-18T21:44:34;4.07;;;3.05;;
20154;SDS011;10238;49.556;10.956;2023-11-18T21:47:22;3.55;;;2.60;;
20154;SDS011;10238;49.556;10.956;2023-11-18T21:50:12;3.38;;;2.95;;
20154;SDS011;10238;49.556;10.956;2023-11-18T21:53:00;6.13;;;3.38;;
20154;SDS011;10238;49.556;10.956;2023-11-18T21:55:48;7.00;;;3.55;;
20154;SDS011;10238;49.556;10.956;2023-11-18T21:58:39;4.68;;;3.28;;
20154;SDS011;10238;49.556;10.956;2023-11-18T22:01:27;5.13;;;3.72;;
20154;SDS011;10238;49.556;10.956;2023-11-18T22:04:15;5.78;;;3.10;;
20154;SDS011;10238;49.556;10.956;2023-11-18T22:07:05;3.55;;;3.00;;
20154;SDS011;10238;49.556;10.956;2023-11-18T22:09:52;5.40;;;3.30;;
20154;SDS011;10238;49.556;10.956;2023-11-18T22:12:39;7.03;;;3.30;;
20154;SDS011;10238;49.556;10.956;2023-11-18T22:15:27;3.63;;;3.00;;
20154;SDS011;10238;49.556;10.956;2023-11-18T22:18:15;5.55;;;3.13;;
20154;SDS011;10238;49.556;10.956;2023-11-18T22:21:03;3.50;;;2.83;;
20154;SDS011;10238;49.556;10.956;2023-11-18T22:23:53;2.92;;;2.67;;
20154;SDS011;10238;49.556;10.956;2023-11-18T22:26:41;5.70;;;2.97;;
20154;SDS011;10238;49.556;10.956;2023-11-18T22:29:29;2.88;;;2.67;;
20154;SDS011;10238;49.556;10.956;2023-11-18T22:32:16;3.72;;;2.92;;
20154;SDS011;10238;49.556;10.956;2023-11-18T22:35:04;4.20;;;3.80;;
20154;SDS011;10238;49.556;10.956;2023-11-18T22:37:53;3.17;;;2.80;;
20154;SDS011;10238;49.556;10.956;2023-11-18T22:40:43;2.60;;;2.30;;
20154;SDS011;10238;49.556;10.956;2023-11-18T22:43:30;3.22;;;2.92;;
20154;SDS011;10238;49.556;10.956;2023-11-18T22:46:18;3.05;;;2.80;;
20154;SDS011;10238;49.556;10.956;2023-11-18T22:49:08;4.50;;;3.75;;
20154;SDS011;10238;49.556;10.956;2023-11-18T22:51:59;3.55;;;3.15;;
20154;SDS011;10238;49.556;10.956;2023-11-18T22:54:47;3.17;;;2.83;;
20154;SDS011;10238;49.556;10.956;2023-11-18T22:57:36;2.90;;;2.60;;
20154;SDS011;10238;49.556;10.956;2023-11-18T23:00:24;2.45;;;2.25;;
20154;SDS011;10238;49.556;10.956;2023-11-18T23:03:28;3.47;;;2.38;;
20154;SDS011;10238;49.556;10.956;2023-11-18T23:06:19;3.80;;;3.10;;
20154;SDS011;10238;49.556;10.956;2023-11-18T23:09:07;3.85;;;3.00;;
20154;SDS011;10238;49.556;10.956;2023-11-18T23:11:58;3.22;;;2.92;;
20154;SDS011;10238;49.556;10.956;2023-11-18T23:14:47;3.28;;;2.85;;
20154;SDS011;10238;49.556;10.956;2023-11-18T23:17:38;3.95;;;3.00;;
20154;SDS011;10238;49.556;10.956;2023-11-18T23:20:26;3.78;;;2.95;;
20154;SDS011;10238;49.556;10.956;2023-11-18T23:23:13;5.35;;;3.28;;
20154;SDS011;10238;49.556;10.956;2023-11-18T23:26:03;3.80;;;3.28;;
20154;SDS011;10238;49.556;10.956;2023-11-18T23:28:51;3.28;;;2.97;;
20154;SDS011;10238;49.556;10.956;2023-11-18T23:31:41;3.67;;;3.28;;
20154;SDS011;10238;49.556;10.956;2023-11-18T23:34:29;5.72;;;2.92;;
20154;SDS011;10238;49.556;10.956;2023-11-18T23:37:16;3.70;;;3.10;;
20154;SDS011;10238;49.556;10.956;2023-11-18T23:40:05;3.05;;;2.65;;
20154;SDS011;10238;49.556;10.956;2023-11-18T23:42:55;3.95;;;3.03;;
20154;SDS011;10238;49.556;10.956;2023-11-18T23:45:43;4.53;;;3.00;;
20154;SDS011;10238;49.556;10.956;2023-11-18T23:48:32;3.40;;;3.10;;
20154;SDS011;10238;49.556;10.956;2023-11-18T23:51:22;4.30;;;3.17;;
20154;SDS011;10238;49.556;10.956;2023-11-18T23:54:09;5.47;;;3.42;;
20154;SDS011;10238;49.556;10.956;2023-11-18T23:56:57;3.40;;;3.10;;
20154;SDS011;10238;49.556;10.956;2023-11-18T23:59:45;3.35;;;3.05;;
